sensor_id;sensor_type;location;lat;lon;timestamp;P1;P2;P0
85869;PMS5003;76385;52.392;16.922;2024-03-23T01:00:09;25.275944620439326;20.072073669172408;7.434101358952743
85869;PMS5003;76385;52.392;16.922;2024-03-23T01:15:09;27.382474326524544;22.202006210695576;13.321203726417345
85869;PMS5003;76385;52.392;16.922;2024-03-23T01:30:09;32.587702827973054;31.106443608519733;8.146925706993263
85869;PMS5003;76385;52.392;16.922;2024-03-23T01:45:09;40.938416662227;27.77963987793975;12.427733629604626
85869;PMS5003;76385;52.392;16.922;2024-03-23T02:00:10;38.12287560587256;34.457214489923274;12.463247794227568
85869;PMS5003;76385;52.392;16.922;2024-03-23T02:15:09;44.05872525535101;42.59010108017264;20.560738452497137
85869;PMS5003;76385;52.392;16.922;2024-03-23T02:30:10;40.58711337745229;36.314785653509944;15.665201654455268
85869;PMS5003;76385;52.392;16.922;2024-03-23T02:45:10;25.520805905233402;22.685160804651915;9.21584657688984
85869;PMS5003;76385;52.392;16.922;2024-03-23T03:00:10;22.147951131832723;22.147951131832723;11.431200584171728
85869;PMS5003;76385;52.392;16.922;2024-03-23T03:15:10;35.41119068334589;29.629771796269015;13.008192495922982
85869;PMS5003;76385;52.392;16.922;2024-03-23T03:30:09;44.42115303845718;35.823510514884816;15.045874416251625
85869;PMS5003;76385;52.392;16.922;2024-03-23T03:45:10;42.23220828576035;40.084807864450504;15.747603089605553
85869;PMS5003;76385;52.392;16.922;2024-03-23T04:00:10;33.10951835958434;31.669974083080678;12.955898488533004
85869;PMS5003;76385;52.392;16.922;2024-03-23T04:15:09;25.327130102077092;22.432600947553997;10.130852040830836
85869;PMS5003;76385;52.392;16.922;2024-03-23T04:30:09;45.85409345905257;38.6893913560756;11.463523364763143
85869;PMS5003;76385;52.392;16.922;2024-03-23T04:45:09;7.029006747744596;7.029006747744596;3.124002998997598
85869;PMS5003;76385;52.392;16.922;2024-03-23T05:00:09;3.7927346187024105;3.7927346187024105;0.758546923740482
85869;PMS5003;76385;52.392;16.922;2024-03-23T05:15:09;10.770000399890726;10.770000399890726;5.385000199945363
85869;PMS5003;76385;52.392;16.922;2024-03-23T05:30:09;10.018575914520065;10.018575914520065;2.311979057196938
85869;PMS5003;76385;52.392;16.922;2024-03-23T05:45:09;14.732026454958943;14.732026454958943;5.4275886939322415
85869;PMS5003;76385;52.392;16.922;2024-03-23T06:00:09;5.462532793509446;5.462532793509446;0.0
85869;PMS5003;76385;52.392;16.922;2024-03-23T06:15:09;13.393517702228289;13.393517702228289;3.151415929936068
85869;PMS5003;76385;52.392;16.922;2024-03-23T06:30:09;9.409858539091664;9.409858539091664;3.920774391288193
85869;PMS5003;76385;52.392;16.922;2024-03-23T06:45:09;13.309320794344382;10.177715901557468;4.69740733918037
85869;PMS5003;76385;52.392;16.922;2024-03-23T07:00:09;10.08839742420571;10.08839742420571;2.3280917132782406
85869;PMS5003;76385;52.392;16.922;2024-03-23T07:15:09;8.716969020929838;8.716969020929838;3.1698069167017593
85869;PMS5003;76385;52.392;16.922;2024-03-23T07:30:09;8.659681513546543;7.0851939656289895;2.36173132187633
85869;PMS5003;76385;52.392;16.922;2024-03-23T07:45:09;17.412210016947398;12.663425466870834;4.748784550076563
85869;PMS5003;76385;52.392;16.922;2024-03-23T08:00:09;10.904043325912562;10.904043325912562;7.009742138086648
85869;PMS5003;76385;52.392;16.922;2024-03-23T08:15:09;13.214835986014197;13.214835986014197;6.996089639654575
85869;PMS5003;76385;52.392;16.922;2024-03-23T08:30:09;9.562962617797595;9.562962617797595;4.7814813088987975
85869;PMS5003;76385;52.392;16.922;2024-03-23T08:45:09;20.068178482934897;17.65999706498271;5.619089975221772
85869;PMS5003;76385;52.392;16.922;2024-03-23T09:00:09;9.612744521061035;9.612744521061035;3.2042481736870116
85869;PMS5003;76385;52.392;16.922;2024-03-23T09:15:09;20.118448467023644;15.29002083493797;6.437903509447566
85869;PMS5003;76385;52.392;16.922;2024-03-23T09:30:10;19.17604637656126;16.779040579491102;5.593013526497034
85869;PMS5003;76385;52.392;16.922;2024-03-23T09:45:10;14.292335391769601;14.292335391769601;5.558130430132622
85869;PMS5003;76385;52.392;16.922;2024-03-23T10:00:10;12.82293819002378;12.82293819002378;4.808601821258917
85869;PMS5003;76385;52.392;16.922;2024-03-23T10:15:10;13.541022609970936;13.541022609970936;6.37224593410397
85869;PMS5003;76385;52.392;16.922;2024-03-23T10:30:10;14.953756544780195;12.592637090341217;5.509278727024283
85869;PMS5003;76385;52.392;16.922;2024-03-23T10:45:09;17.766852209318895;14.676964868567785;6.952246516690003
85869;PMS5003;76385;52.392;16.922;2024-03-23T11:00:09;15.059841836325104;15.059841836325104;6.023936734530041
85869;PMS5003;76385;52.392;16.922;2024-03-23T11:15:09;17.730410901999033;17.730410901999033;6.937986874695274
85869;PMS5003;76385;52.392;16.922;2024-03-23T11:30:09;24.185481559349196;21.91809266316021;8.313759286026286
85869;PMS5003;76385;52.392;16.922;2024-03-23T11:45:09;10.654039803926944;10.654039803926944;5.327019901963472
85869;PMS5003;76385;52.392;16.922;2024-03-23T12:00:09;9.402352404850209;9.402352404850209;3.917646835354254
85869;PMS5003;76385;52.392;16.922;2024-03-23T12:15:09;12.526419571147654;12.526419571147654;3.1316048927869136
85869;PMS5003;76385;52.392;16.922;2024-03-23T12:30:09;6.297950191670213;6.297950191670213;3.1489750958351066
85869;PMS5003;76385;52.392;16.922;2024-03-23T12:45:09;13.85128132572919;9.234187550486126;2.3085468876215316
85869;PMS5003;76385;52.392;16.922;2024-03-23T13:00:09;6.387481705391691;6.387481705391691;2.395305639521884
85869;PMS5003;76385;52.392;16.922;2024-03-23T13:15:09;14.45905401961514;14.45905401961514;5.327019901963472
85869;PMS5003;76385;52.392;16.922;2024-03-23T13:30:09;13.39006454021172;13.39006454021172;5.513555987146002
85869;PMS5003;76385;52.392;16.922;2024-03-23T13:45:09;13.768575738343596;13.768575738343596;5.669413539317952
85869;PMS5003;76385;52.392;16.922;2024-03-23T14:00:09;8.90133474245954;8.90133474245954;1.6184244986290073
85869;PMS5003;76385;52.392;16.922;2024-03-23T14:15:09;9.085112968201813;9.085112968201813;3.3036774429824773
85869;PMS5003;76385;52.392;16.922;2024-03-23T14:30:09;12.241676296754674;10.609452790520718;1.6322235062339567
85869;PMS5003;76385;52.392;16.922;2024-03-23T14:45:09;5.725695707856741;5.725695707856741;0.8179565296938202
85869;PMS5003;76385;52.392;16.922;2024-03-23T15:00:09;5.575715192340974;5.575715192340974;1.5930614835259924
85869;PMS5003;76385;52.392;16.922;2024-03-23T15:15:09;9.562962617797595;9.562962617797595;3.1876542059325317
85869;PMS5003;76385;52.392;16.922;2024-03-23T15:30:09;5.664485745201525;4.046061246572519;0.8092122493145036
85869;PMS5003;76385;52.392;16.922;2024-03-23T15:45:09;8.964189359850415;8.964189359850415;2.4447789163228406
85869;PMS5003;76385;52.392;16.922;2024-03-23T16:00:09;7.266943082631156;7.266943082631156;1.6148762405847013
85869;PMS5003;76385;52.392;16.922;2024-03-23T16:15:09;11.353526657289672;8.920628087870456;4.054830949032025
85869;PMS5003;76385;52.392;16.922;2024-03-23T16:30:09;6.519410443527574;6.519410443527574;2.4447789163228406
85869;PMS5003;76385;52.392;16.922;2024-03-23T16:45:10;7.30963982351058;7.30963982351058;2.4365466078368603
85869;PMS5003;76385;52.392;16.922;2024-03-23T17:00:09;9.933712413070495;9.933712413070495;3.3112374710234986
85869;PMS5003;76385;52.392;16.922;2024-03-23T17:15:10;7.417500114536924;7.417500114536924;4.120833396964958
85869;PMS5003;76385;52.392;16.922;2024-03-23T17:30:10;11.560651635884234;8.257608311345882;2.4772824934037643
85869;PMS5003;76385;52.392;16.922;2024-03-23T17:45:10;16.515216622691764;16.515216622691764;5.780325817942117
85869;PMS5003;76385;52.392;16.922;2024-03-23T18:00:09;16.65786331917547;14.992076987257922;5.830252161711415
85869;PMS5003;76385;52.392;16.922;2024-03-23T18:15:09;8.482050923611888;8.482050923611888;1.6964101847223778
85869;PMS5003;76385;52.392;16.922;2024-03-23T18:30:09;10.975905039244186;10.975905039244186;5.065802325805009
85869;PMS5003;76385;52.392;16.922;2024-03-23T18:45:09;16.85195006786684;16.85195006786684;5.898182523753395
85869;PMS5003;76385;52.392;16.922;2024-03-23T19:00:09;15.070141131417346;15.070141131417346;5.860610439995634
85869;PMS5003;76385;52.392;16.922;2024-03-23T19:15:09;21.619592658259492;21.619592658259492;9.146750740032862
85869;PMS5003;76385;52.392;16.922;2024-03-23T19:30:09;38.88493241883024;32.26622051775275;13.237423802154975
85869;PMS5003;76385;52.392;16.922;2024-03-23T19:45:09;21.38646049674446;18.91879197788933;6.58044938361368
85869;PMS5003;76385;52.392;16.922;2024-03-23T20:00:09;23.55829908158264;23.55829908158264;13.810037392651891
85869;PMS5003;76385;52.392;16.922;2024-03-23T20:15:09;25.080108350900847;21.843965337881386;9.708429039058393
85869;PMS5003;76385;52.392;16.922;2024-03-23T20:30:09;24.16387932121813;24.16387932121813;9.665551728487252
85869;PMS5003;76385;52.392;16.922;2024-03-23T20:45:09;26.60407009418268;26.60407009418268;7.25565548023164
85869;PMS5003;76385;52.392;16.922;2024-03-23T21:00:09;27.24874365380053;27.24874365380053;12.021504553147293
85869;PMS5003;76385;52.392;16.922;2024-03-23T21:15:09;27.871864094098193;23.89016922351274;7.9633897411709125
85869;PMS5003;76385;52.392;16.922;2024-03-23T21:30:09;28.289167884232207;20.431065694167703;8.643912409070952
85869;PMS5003;76385;52.392;16.922;2024-03-23T21:55:09;29.65374945047985;29.65374945047985;14.826874725239925
85869;PMS5003;76385;52.392;16.922;2024-03-23T22:10:09;37.0291371767488;35.453429211780765;17.332787614648375
85869;PMS5003;76385;52.392;16.922;2024-03-23T22:25:09;24.602481251333167;24.602481251333167;8.729912702085963
85869;PMS5003;76385;52.392;16.922;2024-03-23T22:40:09;33.16613444770414;28.428115240889266;10.265708281432234
85869;PMS5003;76385;52.392;16.922;2024-03-23T22:55:09;23.474429579333904;23.474429579333904;12.519695775644749
85869;PMS5003;76385;52.392;16.922;2024-03-23T23:10:09;24.423473457004526;21.27205752706846;3.939269912420085
85869;PMS5003;76385;52.392;16.922;2024-03-23T23:25:09;18.976063124436877;16.604055233882267;3.9533464842576826
85869;PMS5003;76385;52.392;16.922;2024-03-23T23:40:09;9.551456518768148;9.551456518768148;3.979773549486729
85869;PMS5003;76385;52.392;16.922;2024-03-23T23:55:09;15.860824482073694;14.274742033866325;7.137371016933162
